Terminal Aerodrome Forecast
Issued by NWS Wilmington, NC

Home | Current Version | Previous Version | Text Only | Print | Product List | Glossary On
Versions: 1 2 3 4 5 6 7 8 9 10 11 12 13
000
FTUS42 KILM 260537
TAFMYR
TAF
KMYR 260537Z 2606/2706 14005KT P6SM FEW050 SCT250
      TEMPO 2610/2612 4SM BR BKN050
     FM261200 13004KT P6SM SCT030 BKN050
     FM261600 14009KT P6SM FEW045 SCT250
     FM270300 15003KT P6SM FEW250
      AMD LTD TO CLD VIS AND WIND TIL 261000=

USA.gov is the U.S. government's official web portal to all federal, state and local government web resources and services.